Time;durP1;ratioP1;P1;durP2;ratioP2;P2;SDS_P1;SDS_P2;PMS_P1;PMS_P2;Temp;Humidity;BMP_temperature;BMP_pressure;BME280_temperature;BME280_humidity;BME280_pressure;Samples;Min_cycle;Max_cycle;Signal;HPM_P1;HPM_P2
2023/06/19 00:01:42;;;;;;;5.25;1.25;;;;;;;25.18;49.72;100843.53;5049908;28;20029;-52
2023/06/19 00:04:09;;;;;;;3.25;1.30;;;;;;;25.67;48.87;100847.41;5049176;28;20138;-50
2023/06/19 00:06:34;;;;;;;1.77;1.30;;;;;;;25.83;47.91;100833.19;5050424;28;20029;-47
2023/06/19 00:09:00;;;;;;;3.45;1.35;;;;;;;25.43;49.56;100828.91;5050816;28;20040;-53
2023/06/19 00:11:25;;;;;;;2.20;1.35;;;;;;;25.33;49.82;100826.78;5049028;28;20442;-46
2023/06/19 00:13:50;;;;;;;1.60;1.20;;;;;;;25.51;49.45;100849.03;5049495;28;20065;-48
2023/06/19 00:16:16;;;;;;;3.00;1.30;;;;;;;25.55;49.44;100837.28;5047819;28;20040;-48
2023/06/19 00:18:42;;;;;;;3.30;1.48;;;;;;;25.32;50.31;100851.72;5048744;28;20041;-46
2023/06/19 00:21:08;;;;;;;2.83;1.75;;;;;;;25.33;50.54;100842.78;5049367;28;20029;-48
2023/06/19 00:23:34;;;;;;;7.20;2.20;;;;;;;24.69;52.64;100847.56;5048811;28;20429;-47
2023/06/19 00:26:01;;;;;;;6.55;2.30;;;;;;;25.13;51.38;100845.56;5048788;28;20116;-47
2023/06/19 00:28:27;;;;;;;5.32;2.50;;;;;;;24.89;52.57;100855.53;5048960;28;20120;-45
2023/06/19 00:30:53;;;;;;;4.60;2.88;;;;;;;24.85;52.66;100848.59;5049245;28;20308;-46
2023/06/19 00:33:18;;;;;;;6.30;3.60;;;;;;;24.90;52.51;100857.28;5049328;28;20440;-46
2023/06/19 00:35:44;;;;;;;4.38;3.42;;;;;;;24.59;54.10;100855.09;5048265;28;20037;-44
2023/06/19 00:38:09;;;;;;;5.32;3.25;;;;;;;24.55;54.39;100857.06;5049267;28;20063;-46
2023/06/19 00:40:34;;;;;;;5.53;3.30;;;;;;;24.42;54.54;100847.00;5048672;28;20091;-45
2023/06/19 00:43:00;;;;;;;4.93;2.95;;;;;;;24.81;53.49;100857.69;5049419;28;20039;-46
2023/06/19 00:45:26;;;;;;;4.32;2.80;;;;;;;24.52;54.45;100861.63;5048449;28;20498;-52
2023/06/19 00:47:53;;;;;;;4.18;2.88;;;;;;;24.89;53.10;100853.75;5049493;28;20051;-49
2023/06/19 00:50:19;;;;;;;3.50;2.67;;;;;;;25.11;52.49;100858.97;5047681;28;20471;-47
2023/06/19 00:52:44;;;;;;;4.97;3.30;;;;;;;24.59;54.20;100858.63;5048978;28;20110;-45
2023/06/19 00:55:10;;;;;;;4.55;3.40;;;;;;;24.65;53.90;100854.81;5048774;28;20037;-45
2023/06/19 00:57:36;;;;;;;4.10;2.90;;;;;;;24.73;53.92;100850.03;5048518;28;20041;-43
2023/06/19 01:00:07;;;;;;;4.40;2.97;;;;;;;24.70;53.92;100847.53;5049824;28;20048;-46
2023/06/19 01:02:33;;;;;;;5.03;2.80;;;;;;;24.93;53.42;100846.50;5049795;28;20047;-50
2023/06/19 01:04:58;;;;;;;5.63;3.00;;;;;;;24.69;54.49;100856.44;5050258;28;20028;-44
2023/06/19 01:07:29;;;;;;;5.55;3.38;;;;;;;24.46;55.17;100856.56;5052350;28;20044;-46
2023/06/19 01:10:02;;;;;;;4.60;3.30;;;;;;;24.40;56.02;100856.84;5053201;28;20337;-44
2023/06/19 01:12:38;;;;;;;7.50;3.70;;;;;;;23.93;57.92;100865.06;5052563;28;20057;-46
2023/06/19 01:15:05;;;;;;;6.43;3.45;;;;;;;24.27;57.33;100855.69;5052826;28;20124;-46
2023/06/19 01:17:31;;;;;;;4.53;3.58;;;;;;;24.40;56.89;100852.38;5052076;28;20511;-44
2023/06/19 01:19:58;;;;;;;5.03;3.50;;;;;;;24.54;56.80;100863.31;5052321;28;20120;-47
2023/06/19 01:22:30;;;;;;;5.80;4.30;;;;;;;24.27;58.13;100864.53;5052180;28;20075;-47
2023/06/19 01:24:57;;;;;;;5.75;4.30;;;;;;;24.23;59.37;100860.25;5052486;28;20034;-52
2023/06/19 01:27:25;;;;;;;6.78;4.40;;;;;;;24.34;59.09;100865.97;5051488;28;20029;-49
2023/06/19 01:29:51;;;;;;;6.13;4.45;;;;;;;24.09;60.89;100860.81;5051946;28;20029;-46
2023/06/19 01:32:22;;;;;;;6.53;5.18;;;;;;;23.94;61.63;100860.59;5052342;28;20040;-44
2023/06/19 01:34:49;;;;;;;9.40;4.80;;;;;;;24.33;60.03;100850.09;5051912;28;20029;-45
2023/06/19 01:37:15;;;;;;;6.35;5.25;;;;;;;24.30;60.17;100850.19;5051645;28;20036;-47
2023/06/19 01:39:43;;;;;;;8.30;6.15;;;;;;;24.08;61.25;100851.09;5052199;28;20036;-48
2023/06/19 01:42:11;;;;;;;9.10;6.10;;;;;;;24.29;60.27;100852.00;5054100;28;20045;-47
2023/06/19 01:44:36;;;;;;;7.95;6.05;;;;;;;24.17;60.77;100841.84;5053082;28;20037;-49
2023/06/19 01:47:12;;;;;;;8.77;6.63;;;;;;;24.35;60.43;100845.53;5051496;28;20028;-47
2023/06/19 01:49:37;;;;;;;11.38;7.68;;;;;;;24.27;60.04;100845.03;5051076;28;20040;-46
2023/06/19 01:52:03;;;;;;;8.52;6.80;;;;;;;24.33;60.43;100845.63;5051751;28;20029;-47
2023/06/19 01:54:29;;;;;;;9.35;7.70;;;;;;;24.13;61.13;100845.56;5051094;28;20053;-49
2023/06/19 01:56:54;;;;;;;8.73;7.50;;;;;;;24.48;59.59;100839.59;5051177;28;20090;-46
2023/06/19 01:59:21;;;;;;;10.68;7.80;;;;;;;24.50;59.86;100852.88;5049888;28;20041;-48
2023/06/19 02:01:46;;;;;;;11.32;8.85;;;;;;;24.35;60.44;100835.75;5051802;28;20029;-46
2023/06/19 02:04:11;;;;;;;10.20;7.90;;;;;;;24.29;60.23;100840.47;5051606;28;20052;-52
2023/06/19 02:06:36;;;;;;;11.98;8.88;;;;;;;24.33;60.41;100844.75;5050719;28;20041;-46
2023/06/19 02:09:02;;;;;;;10.68;8.52;;;;;;;24.44;59.83;100846.00;5051301;28;20029;-47
2023/06/19 02:11:27;;;;;;;11.10;8.40;;;;;;;24.47;59.86;100842.31;5051006;28;20557;-48
2023/06/19 02:13:52;;;;;;;11.57;9.18;;;;;;;24.03;61.49;100845.09;5051252;28;20033;-49
2023/06/19 02:16:18;;;;;;;16.40;9.10;;;;;;;24.25;60.85;100842.41;5050637;28;20033;-48
2023/06/19 02:18:43;;;;;;;16.00;10.48;;;;;;;24.07;61.59;100841.38;5050187;28;20075;-47
2023/06/19 02:21:08;;;;;;;14.27;10.80;;;;;;;24.37;60.95;100849.00;5051488;28;20041;-47
2023/06/19 02:23:34;;;;;;;15.95;12.15;;;;;;;24.27;61.28;100839.69;5050908;28;20129;-49
2023/06/19 02:25:59;;;;;;;19.23;14.30;;;;;;;24.27;61.44;100850.34;5051115;28;20072;-45
2023/06/19 02:28:24;;;;;;;23.05;14.90;;;;;;;23.90;63.13;100859.00;5050754;28;20032;-50
2023/06/19 02:30:50;;;;;;;20.30;14.40;;;;;;;24.12;63.59;100855.38;5051533;28;20043;-43
2023/06/19 02:33:15;;;;;;;23.95;15.30;;;;;;;24.15;64.23;100862.38;5051538;28;20033;-46
2023/06/19 02:35:41;;;;;;;24.58;15.75;;;;;;;23.88;65.07;100871.50;5050288;28;20059;-51
2023/06/19 02:38:07;;;;;;;24.20;15.73;;;;;;;23.90;65.67;100870.53;5051189;28;20048;-46
2023/06/19 02:40:32;;;;;;;25.08;15.57;;;;;;;24.04;65.61;100883.25;5050469;28;20033;-47
2023/06/19 02:42:57;;;;;;;25.50;15.50;;;;;;;23.74;66.73;100878.25;5051301;28;20040;-45
2023/06/19 02:45:23;;;;;;;30.05;17.70;;;;;;;23.62;67.36;100889.41;5050027;28;20037;-48
2023/06/19 02:47:48;;;;;;;27.00;17.35;;;;;;;23.95;66.40;100888.97;5050719;28;20345;-48
2023/06/19 02:50:13;;;;;;;31.60;19.00;;;;;;;23.62;67.72;100901.84;5050367;28;20094;-46
2023/06/19 02:52:39;;;;;;;29.95;18.42;;;;;;;23.92;66.29;100887.28;5049577;28;20036;-46
2023/06/19 02:55:07;;;;;;;30.50;18.20;;;;;;;23.75;67.86;100909.28;5051520;28;20029;-44
2023/06/19 02:57:33;;;;;;;25.17;16.33;;;;;;;23.76;67.83;100910.16;5050199;28;20503;-50
2023/06/19 02:59:58;;;;;;;27.00;16.08;;;;;;;23.27;70.59;100911.19;5050332;28;20036;-47
2023/06/19 03:02:23;;;;;;;25.15;15.10;;;;;;;23.27;70.84;100917.38;5049995;28;20044;-46
2023/06/19 03:04:49;;;;;;;22.35;13.63;;;;;;;22.92;72.16;100920.50;5050085;28;20040;-51
2023/06/19 03:07:14;;;;;;;16.38;11.00;;;;;;;23.20;71.31;100925.63;5049785;28;20087;-47
2023/06/19 03:09:40;;;;;;;14.23;9.25;;;;;;;23.10;71.48;100927.78;5049425;28;20399;-46
2023/06/19 03:12:06;;;;;;;14.30;8.77;;;;;;;23.21;71.07;100933.56;5050486;28;20040;-44
2023/06/19 03:14:31;;;;;;;11.82;8.07;;;;;;;22.93;72.88;100943.50;5049849;28;20075;-46
2023/06/19 03:16:56;;;;;;;13.90;8.93;;;;;;;22.74;73.49;100945.09;5049739;28;20483;-45
2023/06/19 03:19:22;;;;;;;17.42;11.00;;;;;;;22.95;72.72;100937.19;5049349;28;20498;-44
2023/06/19 03:21:47;;;;;;;21.23;12.98;;;;;;;22.51;74.36;100946.69;5049885;28;20036;-47
2023/06/19 03:24:12;;;;;;;25.85;15.65;;;;;;;22.48;74.72;100944.16;5047809;28;20065;-45
2023/06/19 03:26:38;;;;;;;24.42;14.98;;;;;;;22.67;73.46;100955.03;5048997;28;20037;-43
2023/06/19 03:29:03;;;;;;;30.35;16.83;;;;;;;22.14;75.43;100960.34;5049551;28;20553;-44
2023/06/19 03:31:28;;;;;;;33.83;18.00;;;;;;;22.57;74.44;100958.91;5049573;28;20041;-45
2023/06/19 03:33:54;;;;;;;39.55;20.42;;;;;;;22.48;74.58;100969.88;5049724;28;20403;-47
2023/06/19 03:36:19;;;;;;;41.25;21.08;;;;;;;22.42;75.07;100973.59;5048119;28;20055;-44
2023/06/19 03:38:45;;;;;;;37.75;20.10;;;;;;;22.82;73.01;100974.91;5049611;28;20036;-43
2023/06/19 03:41:10;;;;;;;38.60;19.95;;;;;;;22.58;73.24;100961.50;5051883;28;20102;-45
2023/06/19 03:43:35;;;;;;;33.75;18.55;;;;;;;22.60;73.58;100975.63;5051295;28;20037;-46
2023/06/19 03:46:01;;;;;;;35.30;18.38;;;;;;;22.81;72.53;100976.69;5049875;28;20476;-46
2023/06/19 03:48:27;;;;;;;32.15;17.83;;;;;;;22.84;72.70;100994.31;5049272;28;20040;-50
2023/06/19 03:50:52;;;;;;;31.25;16.65;;;;;;;22.60;73.41;100990.69;5049521;28;20040;-48
2023/06/19 03:53:17;;;;;;;28.05;15.05;;;;;;;22.74;72.39;100995.56;5049907;28;20644;-45
2023/06/19 03:55:44;;;;;;;26.35;15.02;;;;;;;22.50;73.71;100995.47;5048601;28;20558;-50
2023/06/19 03:58:09;;;;;;;20.92;12.13;;;;;;;22.70;71.67;101007.19;5049502;28;20032;-46
2023/06/19 04:00:35;;;;;;;19.83;11.15;;;;;;;22.11;73.65;101010.03;5047652;28;20529;-49
2023/06/19 04:03:00;;;;;;;18.35;10.50;;;;;;;22.22;74.04;101005.25;5049923;28;20245;-44
2023/06/19 04:05:25;;;;;;;17.10;9.95;;;;;;;22.35;73.03;101011.91;5049075;28;20478;-50
2023/06/19 04:07:51;;;;;;;16.48;9.25;;;;;;;22.35;72.74;101006.59;5050328;28;20689;-45
2023/06/19 04:10:16;;;;;;;12.38;8.18;;;;;;;22.73;71.16;101015.97;5050016;28;20491;-46
2023/06/19 04:12:42;;;;;;;14.90;8.07;;;;;;;22.47;72.33;101019.47;5049437;28;20040;-45
2023/06/19 04:15:08;;;;;;;12.07;7.32;;;;;;;22.50;72.09;101022.03;5049479;28;20446;-50
2023/06/19 04:17:33;;;;;;;12.60;6.80;;;;;;;22.73;70.82;101028.38;5049052;28;20037;-44
2023/06/19 04:19:58;;;;;;;12.15;7.25;;;;;;;22.40;71.79;101027.69;5049421;28;20035;-44
2023/06/19 04:22:24;;;;;;;10.20;6.80;;;;;;;22.63;70.50;101033.09;5049162;28;20392;-49
2023/06/19 04:24:49;;;;;;;11.90;7.07;;;;;;;22.68;70.03;101039.16;5049731;28;20541;-46
2023/06/19 04:27:14;;;;;;;10.00;6.95;;;;;;;22.50;70.25;101045.94;5049937;28;20033;-47
2023/06/19 04:29:40;;;;;;;9.80;6.70;;;;;;;22.49;70.18;101052.19;5049286;28;20029;-48
2023/06/19 04:32:11;;;;;;;10.13;7.07;;;;;;;22.65;69.81;101053.41;5049497;28;20041;-44
2023/06/19 04:34:37;;;;;;;11.60;7.30;;;;;;;22.78;69.33;101058.34;5047407;28;20670;-44
2023/06/19 04:37:02;;;;;;;11.02;7.55;;;;;;;22.51;70.72;101065.41;5048995;28;20065;-44
2023/06/19 04:39:28;;;;;;;12.82;7.63;;;;;;;22.60;69.55;101073.06;5048608;28;20037;-47
2023/06/19 04:41:53;;;;;;;11.07;7.28;;;;;;;22.88;68.86;101076.56;5052418;28;20036;-47
2023/06/19 04:44:18;;;;;;;13.65;8.30;;;;;;;22.56;69.49;101077.63;5052798;28;20037;-45
2023/06/19 04:46:44;;;;;;;12.00;8.38;;;;;;;22.38;70.10;101075.56;5052002;28;20040;-48
2023/06/19 04:49:09;;;;;;;14.50;8.90;;;;;;;22.33;70.44;101074.81;5052726;28;20036;-50
2023/06/19 04:51:35;;;;;;;15.90;8.90;;;;;;;22.50;69.19;101079.63;5052614;28;20120;-47
2023/06/19 04:54:00;;;;;;;17.02;8.98;;;;;;;22.36;69.83;101084.50;5053131;28;20048;-44
2023/06/19 04:56:26;;;;;;;13.60;8.75;;;;;;;22.58;69.53;101090.84;5051794;28;20040;-50
2023/06/19 04:58:51;;;;;;;12.82;8.13;;;;;;;22.93;68.15;101095.88;5052742;28;20028;-43
2023/06/19 05:01:17;;;;;;;15.07;8.93;;;;;;;22.71;68.60;101101.94;5052772;28;20037;-43
2023/06/19 05:03:47;;;;;;;11.95;8.40;;;;;;;22.68;68.40;101105.59;5050540;28;20041;-47
2023/06/19 05:06:12;;;;;;;15.23;8.80;;;;;;;22.65;68.35;101095.91;5051551;28;20037;-47
2023/06/19 05:08:38;;;;;;;14.00;8.75;;;;;;;22.75;67.46;101107.13;5052259;28;20129;-45
2023/06/19 05:11:03;;;;;;;16.17;9.40;;;;;;;22.54;67.64;101113.13;5052999;28;20036;-46
2023/06/19 05:13:28;;;;;;;13.20;8.20;;;;;;;22.26;68.45;101119.31;5052191;28;20105;-49
2023/06/19 05:15:55;;;;;;;13.43;9.35;;;;;;;22.45;68.22;101116.94;5052179;28;20040;-48
2023/06/19 05:18:21;;;;;;;14.73;9.57;;;;;;;22.23;68.36;101122.06;5052054;28;20120;-46
2023/06/19 05:20:46;;;;;;;17.92;10.80;;;;;;;22.22;68.88;101135.38;5052813;28;20127;-43
2023/06/19 05:23:12;;;;;;;14.73;9.95;;;;;;;22.62;67.70;101129.72;5052628;28;20029;-47
2023/06/19 05:25:37;;;;;;;16.23;11.18;;;;;;;22.22;67.89;101132.72;5051078;28;20048;-47
2023/06/19 05:28:03;;;;;;;18.30;11.02;;;;;;;22.22;68.83;101132.72;5052418;28;20059;-45
2023/06/19 05:30:29;;;;;;;21.35;11.00;;;;;;;21.92;69.19;101141.56;5051656;28;20037;-48
2023/06/19 05:32:54;;;;;;;16.33;11.43;;;;;;;22.09;67.78;101140.19;5052439;28;20060;-48
2023/06/19 05:35:19;;;;;;;17.55;11.68;;;;;;;22.48;67.01;101155.84;5050305;28;20036;-51
2023/06/19 05:37:45;;;;;;;19.23;12.25;;;;;;;22.14;68.00;101158.66;5052727;28;20048;-43
2023/06/19 05:40:10;;;;;;;16.55;11.10;;;;;;;22.57;66.65;101160.84;5053327;28;20033;-47
2023/06/19 05:42:36;;;;;;;18.45;11.00;;;;;;;22.50;66.46;101159.34;5052914;28;20033;-44
2023/06/19 05:45:03;;;;;;;18.55;11.25;;;;;;;22.22;66.90;101154.84;5053416;28;20051;-46
2023/06/19 05:47:30;;;;;;;16.75;11.85;;;;;;;22.22;67.65;101161.94;5051896;28;20035;-49
2023/06/19 05:49:56;;;;;;;19.67;12.40;;;;;;;21.94;67.95;101172.50;5052684;28;20411;-46
2023/06/19 05:52:21;;;;;;;20.88;13.73;;;;;;;21.81;67.64;101174.63;5051967;28;20044;-45
2023/06/19 05:54:47;;;;;;;22.92;14.55;;;;;;;21.91;66.92;101182.31;5051731;28;20403;-46
2023/06/19 05:57:12;;;;;;;26.55;15.07;;;;;;;22.14;66.60;101179.91;5051256;28;20415;-48
2023/06/19 05:59:38;;;;;;;22.55;14.43;;;;;;;21.72;67.85;101181.94;5051236;28;20048;-46
2023/06/19 06:02:03;;;;;;;21.67;14.35;;;;;;;21.66;67.54;101182.13;5051901;28;20032;-45
2023/06/19 06:04:30;;;;;;;23.67;14.98;;;;;;;21.55;68.25;101187.72;5051359;28;20464;-47
2023/06/19 06:06:56;;;;;;;21.77;14.38;;;;;;;21.63;67.58;101196.34;5051232;28;20403;-45
2023/06/19 06:09:21;;;;;;;19.00;13.35;;;;;;;21.94;66.42;101193.72;5050803;28;20033;-45
2023/06/19 06:11:47;;;;;;;20.27;13.63;;;;;;;21.97;66.50;101200.75;5051387;28;20032;-43
2023/06/19 06:14:12;;;;;;;23.02;13.75;;;;;;;21.89;66.56;101213.34;5051267;28;20469;-46
2023/06/19 06:16:37;;;;;;;20.90;13.82;;;;;;;21.84;66.04;101211.66;5050747;28;20029;-47
2023/06/19 06:19:03;;;;;;;20.50;13.18;;;;;;;22.01;66.27;101215.69;5051671;28;20033;-45
2023/06/19 06:21:28;;;;;;;20.08;13.35;;;;;;;22.23;65.36;101217.69;5050783;28;20072;-45
2023/06/19 06:23:54;;;;;;;19.20;13.05;;;;;;;21.95;65.72;101224.72;5051280;28;20123;-44
2023/06/19 06:26:20;;;;;;;19.42;12.73;;;;;;;22.23;64.79;101230.09;5050514;28;20517;-52
2023/06/19 06:28:45;;;;;;;20.70;13.02;;;;;;;21.83;65.56;101227.66;5050876;28;20104;-45
2023/06/19 06:31:10;;;;;;;19.60;12.65;;;;;;;22.11;64.70;101236.63;5050991;28;20087;-46
2023/06/19 06:33:35;;;;;;;20.88;12.68;;;;;;;22.13;65.03;101244.56;5050820;28;20140;-45
2023/06/19 06:36:01;;;;;;;23.80;13.07;;;;;;;22.00;65.89;101227.22;5050798;28;20036;-45
2023/06/19 06:38:26;;;;;;;19.27;12.98;;;;;;;22.00;65.32;101245.81;5050603;28;20114;-47
2023/06/19 06:40:52;;;;;;;20.52;11.98;;;;;;;22.13;64.99;101250.75;5050768;28;20688;-44
2023/06/19 06:43:17;;;;;;;23.08;12.95;;;;;;;22.15;64.65;101243.56;5050891;28;20052;-46
2023/06/19 06:45:42;;;;;;;21.50;12.75;;;;;;;21.74;65.80;101244.69;5049779;28;20182;-44
2023/06/19 06:48:08;;;;;;;16.98;12.10;;;;;;;22.19;65.10;101249.69;5050774;28;20044;-47
2023/06/19 06:50:34;;;;;;;18.65;11.82;;;;;;;21.97;65.11;101253.84;5050191;28;20052;-44
2023/06/19 06:53:00;;;;;;;18.88;12.02;;;;;;;21.99;65.16;101255.56;5050639;28;20071;-48
2023/06/19 06:55:25;;;;;;;16.52;11.25;;;;;;;22.43;64.69;101264.91;5049747;28;20055;-48
2023/06/19 06:57:50;;;;;;;20.58;12.25;;;;;;;22.48;64.54;101260.34;5050980;28;20679;-45
2023/06/19 07:00:18;;;;;;;13.50;10.25;;;;;;;22.81;62.79;101261.13;5050665;28;20037;-48
2023/06/19 07:02:44;;;;;;;16.25;10.57;;;;;;;22.55;61.65;101271.66;5050142;28;20040;-44
2023/06/19 07:05:10;;;;;;;14.35;10.60;;;;;;;22.94;60.06;101275.78;5052221;28;20037;-41
2023/06/19 07:07:36;;;;;;;15.02;10.70;;;;;;;23.05;59.52;101281.63;5051898;28;20082;-48
2023/06/19 07:10:01;;;;;;;16.38;11.20;;;;;;;23.51;60.19;101284.63;5051817;28;20037;-46
2023/06/19 07:12:27;;;;;;;15.40;10.63;;;;;;;23.80;57.65;101284.50;5050690;28;20044;-44
2023/06/19 07:14:56;;;;;;;17.05;11.57;;;;;;;23.57;57.43;101289.75;5051330;28;20025;-44
2023/06/19 07:17:22;;;;;;;18.05;11.20;;;;;;;23.70;57.65;101294.59;5050402;28;20044;-46
2023/06/19 07:19:47;;;;;;;17.38;11.43;;;;;;;23.90;57.58;101296.59;5050024;28;20128;-50
2023/06/19 07:22:13;;;;;;;16.45;10.60;;;;;;;23.77;57.75;101293.47;5050128;28;20399;-48
2023/06/19 07:24:40;;;;;;;17.10;11.88;;;;;;;22.83;61.17;101300.94;5049522;28;20091;-48
2023/06/19 07:27:06;;;;;;;16.20;10.45;;;;;;;23.43;59.52;101299.00;5049543;28;20090;-45
2023/06/19 07:29:31;;;;;;;15.20;10.48;;;;;;;23.13;60.64;101304.44;5049573;28;20573;-47
2023/06/19 07:31:57;;;;;;;16.25;10.50;;;;;;;22.97;59.82;101298.75;5050161;28;20040;-45
2023/06/19 07:34:23;;;;;;;16.48;10.93;;;;;;;23.24;60.09;101304.97;5049840;28;20520;-50
2023/06/19 07:36:48;;;;;;;15.00;10.27;;;;;;;23.45;60.12;101305.16;5049559;28;20095;-47
2023/06/19 07:39:13;;;;;;;14.95;10.63;;;;;;;23.80;58.05;101305.78;5050185;28;20052;-48
2023/06/19 07:41:39;;;;;;;15.27;10.07;;;;;;;23.72;58.43;101308.75;5053218;28;21534;-49
2023/06/19 07:44:04;;;;;;;14.35;10.00;;;;;;;23.37;59.62;101307.19;5057930;28;20037;-50
2023/06/19 07:46:29;;;;;;;14.50;10.07;;;;;;;23.21;59.32;101305.97;5052401;28;20037;-49
2023/06/19 07:48:55;;;;;;;13.85;9.57;;;;;;;23.50;59.38;101309.50;5049705;28;20048;-45
2023/06/19 07:51:20;;;;;;;17.75;10.73;;;;;;;23.51;59.31;101306.78;5049347;28;20404;-47
2023/06/19 07:53:46;;;;;;;15.65;10.57;;;;;;;23.62;58.71;101317.94;5049834;28;20044;-50
2023/06/19 07:56:11;;;;;;;16.60;11.18;;;;;;;23.54;58.32;101325.31;5049222;28;20029;-48
2023/06/19 07:58:36;;;;;;;15.93;11.05;;;;;;;23.68;58.20;101325.72;5049112;28;20037;-54
2023/06/19 08:01:01;;;;;;;15.23;11.55;;;;;;;23.91;56.79;101321.44;5050101;28;20033;-45
2023/06/19 08:03:27;;;;;;;16.27;11.00;;;;;;;23.74;58.71;101327.31;5049148;28;20041;-49
2023/06/19 08:05:52;;;;;;;18.98;11.90;;;;;;;23.92;57.75;101324.00;5048747;28;20376;-49
2023/06/19 08:08:18;;;;;;;17.13;11.27;;;;;;;24.24;56.54;101317.59;5049212;28;20076;-49
2023/06/19 08:10:43;;;;;;;16.27;11.13;;;;;;;24.20;55.60;101319.50;5048871;28;20082;-47
2023/06/19 08:13:11;;;;;;;17.05;10.73;;;;;;;24.44;54.83;101331.06;5049632;28;20123;-44
2023/06/19 08:15:36;;;;;;;15.35;10.77;;;;;;;24.27;54.91;101329.94;5049650;28;20044;-46
2023/06/19 08:18:02;;;;;;;16.85;11.15;;;;;;;24.10;55.94;101326.03;5053965;28;20036;-46
2023/06/19 08:20:27;;;;;;;13.48;10.00;;;;;;;24.73;56.11;101335.31;5054446;28;20040;-47
2023/06/19 08:22:53;;;;;;;14.55;9.85;;;;;;;25.32;54.32;101335.66;5055178;28;20037;-45
2023/06/19 08:25:18;;;;;;;16.42;10.43;;;;;;;25.76;52.26;101333.88;5054770;28;20072;-47
2023/06/19 08:27:45;;;;;;;15.73;10.52;;;;;;;25.62;52.20;101341.56;5053802;28;20129;-46
2023/06/19 08:30:10;;;;;;;16.50;10.55;;;;;;;25.85;53.13;101336.16;5055325;28;20102;-45
2023/06/19 08:32:36;;;;;;;19.58;10.40;;;;;;;25.54;53.13;101359.69;5054657;28;20495;-47
2023/06/19 08:35:02;;;;;;;19.83;11.07;;;;;;;25.41;53.61;101356.66;5055132;28;20036;-45
2023/06/19 08:37:28;;;;;;;17.38;11.15;;;;;;;25.27;53.89;101360.78;5054255;28;20507;-49
2023/06/19 08:39:53;;;;;;;15.90;10.10;;;;;;;25.29;52.64;101361.63;5053664;28;20039;-48
2023/06/19 08:42:18;;;;;;;20.15;10.40;;;;;;;24.96;53.53;101374.47;5053324;28;20029;-46
2023/06/19 08:44:43;;;;;;;14.85;10.50;;;;;;;24.96;53.77;101372.66;5052397;28;20163;-50
2023/06/19 08:47:09;;;;;;;14.68;9.93;;;;;;;25.74;49.21;101367.78;5052590;28;20033;-45
2023/06/19 08:49:36;;;;;;;14.38;9.85;;;;;;;25.90;50.27;101369.81;5052299;28;20114;-47
2023/06/19 08:52:03;;;;;;;17.73;10.50;;;;;;;25.45;51.73;101368.06;5053082;28;20029;-44
2023/06/19 08:54:29;;;;;;;15.00;10.32;;;;;;;25.07;53.17;101361.56;5052809;28;20029;-50
2023/06/19 08:56:54;;;;;;;13.80;10.35;;;;;;;24.91;53.01;101366.63;5052596;28;20044;-46
2023/06/19 08:59:20;;;;;;;15.98;10.82;;;;;;;24.96;54.27;101363.78;5052487;28;20036;-48
2023/06/19 09:01:53;;;;;;;15.73;10.38;;;;;;;25.66;51.23;101361.91;5052969;28;20033;-47
2023/06/19 09:04:24;;;;;;;11.63;8.98;;;;;;;25.77;49.59;101367.66;5053927;28;20037;-45
2023/06/19 09:06:50;;;;;;;13.23;9.55;;;;;;;26.15;49.29;101354.47;5053701;28;20041;-49
2023/06/19 09:09:16;;;;;;;16.17;9.20;;;;;;;26.78;48.04;101366.78;5054161;28;20060;-50
2023/06/19 09:11:43;;;;;;;13.25;8.75;;;;;;;27.52;46.88;101367.75;5052819;28;20028;-45
2023/06/19 09:14:10;;;;;;;12.48;8.70;;;;;;;27.61;45.54;101367.31;5052980;28;20033;-47
2023/06/19 09:16:40;;;;;;;12.82;9.00;;;;;;;26.71;48.25;101376.03;5051738;28;20037;-44
2023/06/19 09:19:06;;;;;;;12.40;8.50;;;;;;;27.31;47.47;101383.03;5052565;28;20036;-45
2023/06/19 09:21:31;;;;;;;11.35;8.18;;;;;;;27.51;46.27;101383.88;5052290;28;20041;-45
2023/06/19 09:24:07;;;;;;;12.95;8.70;;;;;;;26.75;46.71;101382.97;5052487;28;20029;-46
2023/06/19 09:26:33;;;;;;;15.55;9.68;;;;;;;26.17;48.53;101388.19;5051707;28;20037;-48
2023/06/19 09:29:08;;;;;;;10.50;8.57;;;;;;;26.62;47.85;101393.38;5052900;28;20033;-48
2023/06/19 09:31:34;;;;;;;12.38;8.65;;;;;;;26.70;46.97;101405.53;5052237;28;20137;-46
2023/06/19 09:33:59;;;;;;;13.50;8.73;;;;;;;26.76;47.12;101403.44;5052901;28;20104;-45
2023/06/19 09:36:26;;;;;;;13.43;8.63;;;;;;;26.39;48.14;101406.91;5051878;28;20526;-45
2023/06/19 09:38:52;;;;;;;12.63;8.63;;;;;;;26.64;47.26;101404.88;5052549;28;20037;-46
2023/06/19 09:41:19;;;;;;;13.98;8.07;;;;;;;26.75;47.60;101409.72;5052468;28;20029;-45
2023/06/19 09:43:47;;;;;;;12.48;8.70;;;;;;;26.29;48.81;101408.22;5052062;28;20033;-48
2023/06/19 09:46:14;;;;;;;14.55;8.48;;;;;;;26.24;48.86;101412.88;5053555;28;20061;-49
2023/06/19 09:48:45;;;;;;;14.23;9.13;;;;;;;25.79;50.09;101416.56;5054489;28;20105;-51
2023/06/19 09:51:21;;;;;;;14.68;8.55;;;;;;;26.06;50.00;101418.97;5053683;28;20029;-47
2023/06/19 09:53:48;;;;;;;16.10;9.45;;;;;;;26.43;49.18;101412.97;5051881;28;20025;-46
2023/06/19 09:56:15;;;;;;;14.80;9.55;;;;;;;26.29;49.36;101416.22;5051990;28;20108;-46
2023/06/19 09:58:42;;;;;;;13.93;8.98;;;;;;;26.10;50.14;101418.81;5052122;28;20110;-46
2023/06/19 10:01:08;;;;;;;14.50;9.05;;;;;;;26.33;49.16;101425.88;5051832;28;20029;-53
2023/06/19 10:03:35;;;;;;;13.02;8.57;;;;;;;26.58;47.60;101429.22;5051318;28;20045;-47
2023/06/19 10:06:01;;;;;;;13.30;8.43;;;;;;;26.23;49.41;101420.03;5051052;28;20487;-50
2023/06/19 10:08:31;;;;;;;14.98;8.70;;;;;;;27.09;46.94;101427.81;5051094;28;20491;-48
2023/06/19 10:10:57;;;;;;;11.52;7.65;;;;;;;27.33;46.84;101429.34;5051065;28;20115;-48
2023/06/19 10:13:31;;;;;;;13.18;8.15;;;;;;;27.63;44.97;101418.97;5050956;28;20477;-53
2023/06/19 10:15:56;;;;;;;13.30;8.55;;;;;;;26.72;48.87;101420.56;5050649;28;20029;-53
2023/06/19 10:18:24;;;;;;;11.73;8.35;;;;;;;26.72;48.00;101417.88;5050941;28;20109;-49
2023/06/19 10:20:50;;;;;;;10.85;7.65;;;;;;;26.46;47.75;101427.09;5051097;28;20037;-48
2023/06/19 10:23:18;;;;;;;11.50;7.93;;;;;;;26.47;48.33;101422.59;5051470;28;20148;-48
2023/06/19 10:25:45;;;;;;;12.77;7.75;;;;;;;26.67;47.74;101425.25;5050013;28;20115;-49
2023/06/19 10:28:18;;;;;;;11.75;7.88;;;;;;;26.88;46.81;101418.97;5051109;28;20102;-47
2023/06/19 10:30:43;;;;;;;11.13;7.60;;;;;;;26.46;47.70;101423.53;5050472;28;20037;-51
2023/06/19 10:33:08;;;;;;;12.55;7.40;;;;;;;26.74;47.46;101425.84;5050983;28;20041;-46
2023/06/19 10:35:40;;;;;;;15.02;7.57;;;;;;;27.20;45.92;101428.16;5049815;28;20057;-48
2023/06/19 10:38:08;;;;;;;11.10;7.38;;;;;;;27.70;44.39;101428.47;5050048;28;20074;-48
2023/06/19 10:40:36;;;;;;;10.98;7.22;;;;;;;27.54;44.44;101430.16;5050264;28;20673;-47
2023/06/19 10:43:02;;;;;;;9.45;6.65;;;;;;;27.96;43.67;101432.53;5051352;28;20033;-51
2023/06/19 10:45:28;;;;;;;13.00;7.35;;;;;;;27.76;42.53;101428.16;5050462;28;20095;-48
2023/06/19 10:47:55;;;;;;;10.88;7.63;;;;;;;26.51;46.37;101426.88;5051381;28;20044;-46
2023/06/19 10:50:20;;;;;;;11.85;7.18;;;;;;;26.99;45.93;101416.66;5050750;28;20127;-48
2023/06/19 10:52:47;;;;;;;10.20;6.70;;;;;;;27.52;44.94;101423.13;5050804;28;20037;-48
2023/06/19 10:55:13;;;;;;;11.25;7.50;;;;;;;27.91;44.06;101421.19;5050102;28;20690;-45
2023/06/19 10:57:44;;;;;;;11.20;7.28;;;;;;;27.04;44.44;101419.13;5050065;28;20037;-49
2023/06/19 11:00:13;;;;;;;9.93;7.10;;;;;;;27.75;44.90;101417.53;5051443;28;20496;-47
2023/06/19 11:02:42;;;;;;;10.90;7.07;;;;;;;27.52;45.17;101412.41;5050796;28;20064;-47
2023/06/19 11:05:08;;;;;;;12.68;7.20;;;;;;;28.15;43.13;101408.38;5050297;28;20450;-46
2023/06/19 11:07:33;;;;;;;9.90;6.95;;;;;;;27.63;44.80;101405.59;5049267;28;20033;-49
2023/06/19 11:09:59;;;;;;;10.32;7.60;;;;;;;27.94;44.73;101404.06;5050159;28;20063;-50